sensor_id;sensor_type;location;lat;lon;timestamp;temperature;humidity
38436;DHT22;24220;48.168;14.024;2023-03-04T00:01:09;10.50;58.40
38436;DHT22;24220;48.168;14.024;2023-03-04T00:03:37;10.50;58.50
38436;DHT22;24220;48.168;14.024;2023-03-04T00:06:04;10.40;58.50
38436;DHT22;24220;48.168;14.024;2023-03-04T00:08:34;10.40;58.60
38436;DHT22;24220;48.168;14.024;2023-03-04T00:11:04;10.40;58.60
38436;DHT22;24220;48.168;14.024;2023-03-04T00:13:31;10.40;58.70
38436;DHT22;24220;48.168;14.024;2023-03-04T00:15:59;10.40;58.60
38436;DHT22;24220;48.168;14.024;2023-03-04T00:18:26;10.40;58.70
38436;DHT22;24220;48.168;14.024;2023-03-04T00:20:54;10.40;58.70
38436;DHT22;24220;48.168;14.024;2023-03-04T00:23:23;10.40;58.80
38436;DHT22;24220;48.168;14.024;2023-03-04T00:25:50;10.30;58.70
38436;DHT22;24220;48.168;14.024;2023-03-04T00:28:18;10.30;58.70
38436;DHT22;24220;48.168;14.024;2023-03-04T00:30:45;10.30;58.70
38436;DHT22;24220;48.168;14.024;2023-03-04T00:33:13;10.30;58.70
38436;DHT22;24220;48.168;14.024;2023-03-04T00:35:40;10.30;58.70
38436;DHT22;24220;48.168;14.024;2023-03-04T00:38:08;10.30;58.60
38436;DHT22;24220;48.168;14.024;2023-03-04T00:40:35;10.30;58.60
38436;DHT22;24220;48.168;14.024;2023-03-04T00:43:03;10.30;58.60
38436;DHT22;24220;48.168;14.024;2023-03-04T00:45:30;10.20;58.60
38436;DHT22;24220;48.168;14.024;2023-03-04T00:47:57;10.20;58.60
38436;DHT22;24220;48.168;14.024;2023-03-04T00:50:25;10.20;58.60
38436;DHT22;24220;48.168;14.024;2023-03-04T00:52:52;10.20;58.60
38436;DHT22;24220;48.168;14.024;2023-03-04T00:55:19;10.20;58.70
38436;DHT22;24220;48.168;14.024;2023-03-04T00:57:47;10.10;58.70
38436;DHT22;24220;48.168;14.024;2023-03-04T01:00:14;10.10;58.70
38436;DHT22;24220;48.168;14.024;2023-03-04T01:02:42;10.10;58.80
38436;DHT22;24220;48.168;14.024;2023-03-04T01:05:12;10.10;58.80
38436;DHT22;24220;48.168;14.024;2023-03-04T01:07:40;10.10;58.80
38436;DHT22;24220;48.168;14.024;2023-03-04T01:10:12;10.10;58.80
38436;DHT22;24220;48.168;14.024;2023-03-04T01:12:42;10.00;58.90
38436;DHT22;24220;48.168;14.024;2023-03-04T01:15:12;10.00;58.80
38436;DHT22;24220;48.168;14.024;2023-03-04T01:17:42;10.00;58.80
38436;DHT22;24220;48.168;14.024;2023-03-04T01:20:15;10.00;58.90
38436;DHT22;24220;48.168;14.024;2023-03-04T01:22:42;9.90;58.90
38436;DHT22;24220;48.168;14.024;2023-03-04T01:25:10;9.90;58.90
38436;DHT22;24220;48.168;14.024;2023-03-04T01:27:38;9.90;59.00
38436;DHT22;24220;48.168;14.024;2023-03-04T01:30:06;9.90;59.00
38436;DHT22;24220;48.168;14.024;2023-03-04T01:32:36;9.90;58.90
38436;DHT22;24220;48.168;14.024;2023-03-04T01:35:04;9.90;58.90
38436;DHT22;24220;48.168;14.024;2023-03-04T01:37:32;9.90;59.00
38436;DHT22;24220;48.168;14.024;2023-03-04T01:40:00;9.90;59.10
38436;DHT22;24220;48.168;14.024;2023-03-04T01:42:33;9.90;59.10
38436;DHT22;24220;48.168;14.024;2023-03-04T01:45:02;9.80;59.10
38436;DHT22;24220;48.168;14.024;2023-03-04T01:47:32;9.80;59.10
38436;DHT22;24220;48.168;14.024;2023-03-04T01:50:02;9.80;59.10
38436;DHT22;24220;48.168;14.024;2023-03-04T01:52:30;9.70;59.20
38436;DHT22;24220;48.168;14.024;2023-03-04T01:54:59;9.70;59.20
38436;DHT22;24220;48.168;14.024;2023-03-04T01:57:26;9.70;59.20
38436;DHT22;24220;48.168;14.024;2023-03-04T02:00:31;9.70;59.20
38436;DHT22;24220;48.168;14.024;2023-03-04T02:03:09;9.60;59.30
38436;DHT22;24220;48.168;14.024;2023-03-04T02:05:41;9.60;59.20
38436;DHT22;24220;48.168;14.024;2023-03-04T02:08:10;9.60;59.30
38436;DHT22;24220;48.168;14.024;2023-03-04T02:10:43;9.60;59.20
38436;DHT22;24220;48.168;14.024;2023-03-04T02:13:11;9.60;59.20
38436;DHT22;24220;48.168;14.024;2023-03-04T02:15:44;9.60;59.70
38436;DHT22;24220;48.168;14.024;2023-03-04T02:18:18;9.60;59.20
38436;DHT22;24220;48.168;14.024;2023-03-04T02:20:59;9.60;59.30
38436;DHT22;24220;48.168;14.024;2023-03-04T02:26:29;9.50;59.40
38436;DHT22;24220;48.168;14.024;2023-03-04T02:29:01;9.50;59.40
38436;DHT22;24220;48.168;14.024;2023-03-04T02:31:36;9.50;59.40
38436;DHT22;24220;48.168;14.024;2023-03-04T02:36:45;9.40;59.40
38436;DHT22;24220;48.168;14.024;2023-03-04T02:41:53;9.40;59.60
38436;DHT22;24220;48.168;14.024;2023-03-04T02:44:24;9.50;59.60
38436;DHT22;24220;48.168;14.024;2023-03-04T02:46:53;9.40;59.50
38436;DHT22;24220;48.168;14.024;2023-03-04T02:49:25;9.40;59.40
38436;DHT22;24220;48.168;14.024;2023-03-04T02:52:00;9.40;59.40
38436;DHT22;24220;48.168;14.024;2023-03-04T02:54:28;9.40;59.50
38436;DHT22;24220;48.168;14.024;2023-03-04T02:57:03;9.40;59.30
38436;DHT22;24220;48.168;14.024;2023-03-04T02:59:36;9.40;59.30
38436;DHT22;24220;48.168;14.024;2023-03-04T03:02:07;9.40;59.40
38436;DHT22;24220;48.168;14.024;2023-03-04T03:04:36;9.40;59.40
38436;DHT22;24220;48.168;14.024;2023-03-04T03:07:04;9.30;59.40
38436;DHT22;24220;48.168;14.024;2023-03-04T03:09:38;9.40;59.50
38436;DHT22;24220;48.168;14.024;2023-03-04T03:12:05;9.30;59.40
38436;DHT22;24220;48.168;14.024;2023-03-04T03:14:42;9.30;59.40
38436;DHT22;24220;48.168;14.024;2023-03-04T03:17:09;9.30;59.30
38436;DHT22;24220;48.168;14.024;2023-03-04T03:19:39;9.30;59.40
38436;DHT22;24220;48.168;14.024;2023-03-04T03:22:12;9.30;59.40
38436;DHT22;24220;48.168;14.024;2023-03-04T03:24:40;9.30;59.40
38436;DHT22;24220;48.168;14.024;2023-03-04T03:27:07;9.30;59.40
38436;DHT22;24220;48.168;14.024;2023-03-04T03:29:36;9.30;59.40
38436;DHT22;24220;48.168;14.024;2023-03-04T03:32:06;9.30;59.40
38436;DHT22;24220;48.168;14.024;2023-03-04T03:34:34;9.30;59.30
38436;DHT22;24220;48.168;14.024;2023-03-04T03:37:01;9.30;59.30
38436;DHT22;24220;48.168;14.024;2023-03-04T03:39:29;9.30;59.30
38436;DHT22;24220;48.168;14.024;2023-03-04T03:41:57;9.30;59.30
38436;DHT22;24220;48.168;14.024;2023-03-04T03:44:27;9.20;59.30
38436;DHT22;24220;48.168;14.024;2023-03-04T03:46:54;9.20;59.30
38436;DHT22;24220;48.168;14.024;2023-03-04T03:49:24;9.30;59.40
38436;DHT22;24220;48.168;14.024;2023-03-04T03:51:51;9.20;59.30
38436;DHT22;24220;48.168;14.024;2023-03-04T03:54:23;9.20;59.40
38436;DHT22;24220;48.168;14.024;2023-03-04T03:56:50;9.20;59.30
38436;DHT22;24220;48.168;14.024;2023-03-04T03:59:17;9.20;59.30
38436;DHT22;24220;48.168;14.024;2023-03-04T04:01:45;9.20;59.20
38436;DHT22;24220;48.168;14.024;2023-03-04T04:04:13;9.20;59.20
38436;DHT22;24220;48.168;14.024;2023-03-04T04:06:40;9.10;59.20
38436;DHT22;24220;48.168;14.024;2023-03-04T04:09:07;9.10;59.00
38436;DHT22;24220;48.168;14.024;2023-03-04T04:11:36;9.10;59.10
38436;DHT22;24220;48.168;14.024;2023-03-04T04:14:12;9.10;59.20
38436;DHT22;24220;48.168;14.024;2023-03-04T04:16:42;9.10;59.30
38436;DHT22;24220;48.168;14.024;2023-03-04T04:19:18;9.10;59.30
38436;DHT22;24220;48.168;14.024;2023-03-04T04:21:48;9.10;59.50
38436;DHT22;24220;48.168;14.024;2023-03-04T04:24:19;9.00;59.40
38436;DHT22;24220;48.168;14.024;2023-03-04T04:26:46;9.10;59.60
38436;DHT22;24220;48.168;14.024;2023-03-04T04:29:14;9.00;59.60
38436;DHT22;24220;48.168;14.024;2023-03-04T04:31:42;9.10;59.60
38436;DHT22;24220;48.168;14.024;2023-03-04T04:34:10;9.00;59.60
38436;DHT22;24220;48.168;14.024;2023-03-04T04:36:37;9.00;59.70
38436;DHT22;24220;48.168;14.024;2023-03-04T04:39:05;9.00;59.80
38436;DHT22;24220;48.168;14.024;2023-03-04T04:41:41;9.00;59.80
38436;DHT22;24220;48.168;14.024;2023-03-04T04:44:11;8.90;59.80
38436;DHT22;24220;48.168;14.024;2023-03-04T04:46:39;9.00;59.80
38436;DHT22;24220;48.168;14.024;2023-03-04T04:49:07;9.00;59.60
38436;DHT22;24220;48.168;14.024;2023-03-04T04:51:38;8.90;59.50
38436;DHT22;24220;48.168;14.024;2023-03-04T04:54:13;9.00;59.40
38436;DHT22;24220;48.168;14.024;2023-03-04T04:56:41;8.90;59.20
38436;DHT22;24220;48.168;14.024;2023-03-04T04:59:13;9.00;59.10
38436;DHT22;24220;48.168;14.024;2023-03-04T05:01:40;8.90;58.90
38436;DHT22;24220;48.168;14.024;2023-03-04T05:04:08;8.90;58.90
38436;DHT22;24220;48.168;14.024;2023-03-04T05:06:40;8.90;58.80
38436;DHT22;24220;48.168;14.024;2023-03-04T05:09:08;8.90;58.80
38436;DHT22;24220;48.168;14.024;2023-03-04T05:11:37;8.90;58.70
38436;DHT22;24220;48.168;14.024;2023-03-04T05:14:05;8.90;58.70
38436;DHT22;24220;48.168;14.024;2023-03-04T05:16:32;8.80;58.60
38436;DHT22;24220;48.168;14.024;2023-03-04T05:18:59;8.80;58.60
38436;DHT22;24220;48.168;14.024;2023-03-04T05:21:27;8.70;58.60
38436;DHT22;24220;48.168;14.024;2023-03-04T05:23:54;8.80;59.40
38436;DHT22;24220;48.168;14.024;2023-03-04T05:26:21;8.70;59.30
38436;DHT22;24220;48.168;14.024;2023-03-04T05:28:51;8.70;58.70
38436;DHT22;24220;48.168;14.024;2023-03-04T05:31:27;8.70;58.70
38436;DHT22;24220;48.168;14.024;2023-03-04T05:33:57;8.70;58.80
38436;DHT22;24220;48.168;14.024;2023-03-04T05:36:27;8.60;58.60
38436;DHT22;24220;48.168;14.024;2023-03-04T05:38:56;8.70;58.60
38436;DHT22;24220;48.168;14.024;2023-03-04T05:41:26;8.60;58.70
38436;DHT22;24220;48.168;14.024;2023-03-04T05:43:56;8.60;58.70
38436;DHT22;24220;48.168;14.024;2023-03-04T05:46:26;8.60;58.70
38436;DHT22;24220;48.168;14.024;2023-03-04T05:48:55;8.60;58.60
38436;DHT22;24220;48.168;14.024;2023-03-04T05:51:23;8.50;58.60
38436;DHT22;24220;48.168;14.024;2023-03-04T05:53:50;8.60;58.70
38436;DHT22;24220;48.168;14.024;2023-03-04T05:56:22;8.50;58.70
38436;DHT22;24220;48.168;14.024;2023-03-04T05:58:50;8.50;58.70
38436;DHT22;24220;48.168;14.024;2023-03-04T06:01:17;8.50;58.80
38436;DHT22;24220;48.168;14.024;2023-03-04T06:03:54;8.50;58.90
38436;DHT22;24220;48.168;14.024;2023-03-04T06:06:24;8.50;59.00
38436;DHT22;24220;48.168;14.024;2023-03-04T06:08:54;8.50;59.10
38436;DHT22;24220;48.168;14.024;2023-03-04T06:11:25;8.40;59.10
38436;DHT22;24220;48.168;14.024;2023-03-04T06:13:55;8.40;59.10
38436;DHT22;24220;48.168;14.024;2023-03-04T06:16:25;8.40;59.10
38436;DHT22;24220;48.168;14.024;2023-03-04T06:19:00;8.40;59.20
38436;DHT22;24220;48.168;14.024;2023-03-04T06:21:30;8.40;59.20
38436;DHT22;24220;48.168;14.024;2023-03-04T06:23:58;8.40;59.40
38436;DHT22;24220;48.168;14.024;2023-03-04T06:26:25;8.40;59.40
38436;DHT22;24220;48.168;14.024;2023-03-04T06:28:55;8.40;59.50
38436;DHT22;24220;48.168;14.024;2023-03-04T06:31:23;8.40;59.50
38436;DHT22;24220;48.168;14.024;2023-03-04T06:33:53;8.40;59.70
38436;DHT22;24220;48.168;14.024;2023-03-04T06:36:21;8.40;59.80
38436;DHT22;24220;48.168;14.024;2023-03-04T06:38:48;8.50;59.90
38436;DHT22;24220;48.168;14.024;2023-03-04T06:41:17;8.40;59.90
38436;DHT22;24220;48.168;14.024;2023-03-04T06:43:44;8.50;60.10
38436;DHT22;24220;48.168;14.024;2023-03-04T06:46:12;8.50;60.00
38436;DHT22;24220;48.168;14.024;2023-03-04T06:48:40;8.50;60.00
38436;DHT22;24220;48.168;14.024;2023-03-04T06:51:09;8.60;60.20
38436;DHT22;24220;48.168;14.024;2023-03-04T06:53:38;8.60;60.20
38436;DHT22;24220;48.168;14.024;2023-03-04T06:56:07;8.60;60.20
38436;DHT22;24220;48.168;14.024;2023-03-04T06:58:41;8.70;60.30
38436;DHT22;24220;48.168;14.024;2023-03-04T07:01:14;8.70;60.30
38436;DHT22;24220;48.168;14.024;2023-03-04T07:03:42;8.80;60.40
38436;DHT22;24220;48.168;14.024;2023-03-04T07:06:11;8.80;60.30
38436;DHT22;24220;48.168;14.024;2023-03-04T07:08:41;8.80;60.30
38436;DHT22;24220;48.168;14.024;2023-03-04T07:11:09;8.80;60.40
38436;DHT22;24220;48.168;14.024;2023-03-04T07:13:37;8.90;60.30
38436;DHT22;24220;48.168;14.024;2023-03-04T07:16:12;8.90;60.30
38436;DHT22;24220;48.168;14.024;2023-03-04T07:18:40;8.90;60.30
38436;DHT22;24220;48.168;14.024;2023-03-04T07:21:08;9.00;60.20
38436;DHT22;24220;48.168;14.024;2023-03-04T07:23:36;9.00;60.30
38436;DHT22;24220;48.168;14.024;2023-03-04T07:26:04;9.00;60.20
38436;DHT22;24220;48.168;14.024;2023-03-04T07:28:32;9.10;60.20
38436;DHT22;24220;48.168;14.024;2023-03-04T07:31:28;9.10;60.10
38436;DHT22;24220;48.168;14.024;2023-03-04T07:34:04;9.20;60.20
38436;DHT22;24220;48.168;14.024;2023-03-04T07:36:35;9.20;60.10
38436;DHT22;24220;48.168;14.024;2023-03-04T07:39:03;9.30;60.30
38436;DHT22;24220;48.168;14.024;2023-03-04T07:41:31;9.30;60.40
38436;DHT22;24220;48.168;14.024;2023-03-04T07:44:05;9.30;60.60
38436;DHT22;24220;48.168;14.024;2023-03-04T07:46:34;9.40;60.90
38436;DHT22;24220;48.168;14.024;2023-03-04T07:49:02;9.50;61.00
38436;DHT22;24220;48.168;14.024;2023-03-04T07:51:40;9.60;61.00
38436;DHT22;24220;48.168;14.024;2023-03-04T07:54:08;9.70;60.90
38436;DHT22;24220;48.168;14.024;2023-03-04T07:56:42;9.80;60.90
38436;DHT22;24220;48.168;14.024;2023-03-04T07:59:15;9.90;60.80
38436;DHT22;24220;48.168;14.024;2023-03-04T08:01:43;10.10;60.80
38436;DHT22;24220;48.168;14.024;2023-03-04T08:04:11;10.20;60.70
38436;DHT22;24220;48.168;14.024;2023-03-04T08:06:42;10.30;60.50
38436;DHT22;24220;48.168;14.024;2023-03-04T08:09:10;10.50;60.10
38436;DHT22;24220;48.168;14.024;2023-03-04T08:11:42;10.50;60.00
38436;DHT22;24220;48.168;14.024;2023-03-04T08:14:13;10.70;59.60
38436;DHT22;24220;48.168;14.024;2023-03-04T08:16:41;10.80;59.50
38436;DHT22;24220;48.168;14.024;2023-03-04T08:19:12;10.90;59.50
38436;DHT22;24220;48.168;14.024;2023-03-04T08:21:42;11.00;59.50
38436;DHT22;24220;48.168;14.024;2023-03-04T08:24:16;11.10;58.80
38436;DHT22;24220;48.168;14.024;2023-03-04T08:26:49;11.20;58.30
38436;DHT22;24220;48.168;14.024;2023-03-04T08:29:20;11.30;57.90
38436;DHT22;24220;48.168;14.024;2023-03-04T08:31:48;11.40;57.80
38436;DHT22;24220;48.168;14.024;2023-03-04T08:34:21;11.40;57.40
38436;DHT22;24220;48.168;14.024;2023-03-04T08:36:54;11.50;57.10
38436;DHT22;24220;48.168;14.024;2023-03-04T08:39:29;11.60;56.90
38436;DHT22;24220;48.168;14.024;2023-03-04T08:42:02;11.70;56.80
38436;DHT22;24220;48.168;14.024;2023-03-04T08:44:38;11.80;56.70
38436;DHT22;24220;48.168;14.024;2023-03-04T08:47:12;11.80;56.40
38436;DHT22;24220;48.168;14.024;2023-03-04T08:49:48;11.90;56.40
38436;DHT22;24220;48.168;14.024;2023-03-04T08:52:24;12.00;56.20
38436;DHT22;24220;48.168;14.024;2023-03-04T08:54:55;12.10;56.10
38436;DHT22;24220;48.168;14.024;2023-03-04T08:57:28;12.10;55.80
38436;DHT22;24220;48.168;14.024;2023-03-04T08:59:59;12.20;56.60
38436;DHT22;24220;48.168;14.024;2023-03-04T09:02:28;12.30;55.50
38436;DHT22;24220;48.168;14.024;2023-03-04T09:04:57;12.30;55.20
38436;DHT22;24220;48.168;14.024;2023-03-04T09:07:28;12.40;55.20
38436;DHT22;24220;48.168;14.024;2023-03-04T09:09:55;12.50;55.10
38436;DHT22;24220;48.168;14.024;2023-03-04T09:12:23;12.60;55.00
38436;DHT22;24220;48.168;14.024;2023-03-04T09:14:51;12.60;54.60
38436;DHT22;24220;48.168;14.024;2023-03-04T09:17:36;12.70;54.20
38436;DHT22;24220;48.168;14.024;2023-03-04T09:20:06;12.70;54.00
38436;DHT22;24220;48.168;14.024;2023-03-04T09:22:36;12.80;53.70
38436;DHT22;24220;48.168;14.024;2023-03-04T09:25:07;12.90;53.70
38436;DHT22;24220;48.168;14.024;2023-03-04T09:27:39;12.90;53.70
38436;DHT22;24220;48.168;14.024;2023-03-04T09:30:15;13.00;53.70
38436;DHT22;24220;48.168;14.024;2023-03-04T09:32:42;13.10;53.20
38436;DHT22;24220;48.168;14.024;2023-03-04T09:35:11;13.10;53.60
38436;DHT22;24220;48.168;14.024;2023-03-04T09:37:40;13.20;53.20
38436;DHT22;24220;48.168;14.024;2023-03-04T09:40:10;13.20;53.10
38436;DHT22;24220;48.168;14.024;2023-03-04T09:42:46;13.30;53.00
38436;DHT22;24220;48.168;14.024;2023-03-04T09:45:20;13.40;52.90
38436;DHT22;24220;48.168;14.024;2023-03-04T09:47:50;13.40;52.80
38436;DHT22;24220;48.168;14.024;2023-03-04T09:50:19;13.50;53.00
38436;DHT22;24220;48.168;14.024;2023-03-04T09:55:37;13.60;52.40
38436;DHT22;24220;48.168;14.024;2023-03-04T10:00:55;13.70;52.20
38436;DHT22;24220;48.168;14.024;2023-03-04T10:03:29;13.80;51.90
38436;DHT22;24220;48.168;14.024;2023-03-04T10:06:06;13.80;51.70
38436;DHT22;24220;48.168;14.024;2023-03-04T10:11:15;13.90;51.60
38436;DHT22;24220;48.168;14.024;2023-03-04T10:16:31;13.90;51.10
38436;DHT22;24220;48.168;14.024;2023-03-04T10:21:48;14.00;51.60
38436;DHT22;24220;48.168;14.024;2023-03-04T10:24:20;14.10;51.40
38436;DHT22;24220;48.168;14.024;2023-03-04T10:26:52;14.10;51.30
38436;DHT22;24220;48.168;14.024;2023-03-04T10:29:22;14.20;51.70
38436;DHT22;24220;48.168;14.024;2023-03-04T10:31:50;14.20;52.40
38436;DHT22;24220;48.168;14.024;2023-03-04T10:34:18;14.30;51.30
38436;DHT22;24220;48.168;14.024;2023-03-04T10:39:34;14.40;51.60
38436;DHT22;24220;48.168;14.024;2023-03-04T10:44:34;14.50;51.50
38436;DHT22;24220;48.168;14.024;2023-03-04T10:47:10;14.60;51.30
38436;DHT22;24220;48.168;14.024;2023-03-04T10:50:15;14.60;51.50
38436;DHT22;24220;48.168;14.024;2023-03-04T10:52:48;14.70;51.60
38436;DHT22;24220;48.168;14.024;2023-03-04T10:55:27;14.80;51.10
38436;DHT22;24220;48.168;14.024;2023-03-04T10:58:04;14.80;51.20
38436;DHT22;24220;48.168;14.024;2023-03-04T11:00:33;14.90;50.60
38436;DHT22;24220;48.168;14.024;2023-03-04T11:03:23;15.00;50.40
38436;DHT22;24220;48.168;14.024;2023-03-04T11:08:44;15.10;49.50
38436;DHT22;24220;48.168;14.024;2023-03-04T11:14:00;15.10;49.30
38436;DHT22;24220;48.168;14.024;2023-03-04T11:16:31;15.10;49.30
38436;DHT22;24220;48.168;14.024;2023-03-04T11:19:12;15.10;49.60
38436;DHT22;24220;48.168;14.024;2023-03-04T11:21:45;15.10;49.20
38436;DHT22;24220;48.168;14.024;2023-03-04T11:24:25;15.20;49.50
38436;DHT22;24220;48.168;14.024;2023-03-04T11:27:20;15.20;49.40
38436;DHT22;24220;48.168;14.024;2023-03-04T11:30:07;15.20;48.80
38436;DHT22;24220;48.168;14.024;2023-03-04T11:32:51;15.30;49.10
38436;DHT22;24220;48.168;14.024;2023-03-04T11:35:37;15.30;48.50
38436;DHT22;24220;48.168;14.024;2023-03-04T11:38:19;15.40;48.40
38436;DHT22;24220;48.168;14.024;2023-03-04T11:41:10;15.40;48.50
38436;DHT22;24220;48.168;14.024;2023-03-04T11:43:42;15.40;48.80
38436;DHT22;24220;48.168;14.024;2023-03-04T11:52:41;15.50;49.00
38436;DHT22;24220;48.168;14.024;2023-03-04T12:01:07;15.60;47.90
38436;DHT22;24220;48.168;14.024;2023-03-04T12:20:47;15.70;48.00
38436;DHT22;24220;48.168;14.024;2023-03-04T12:26:24;15.80;48.00
38436;DHT22;24220;48.168;14.024;2023-03-04T12:31:47;15.90;48.10
38436;DHT22;24220;48.168;14.024;2023-03-04T12:42:53;15.90;47.50
38436;DHT22;24220;48.168;14.024;2023-03-04T12:48:41;15.80;47.30
38436;DHT22;24220;48.168;14.024;2023-03-04T12:53:47;15.80;47.30
38436;DHT22;24220;48.168;14.024;2023-03-04T12:56:38;15.80;46.90
38436;DHT22;24220;48.168;14.024;2023-03-04T12:59:20;15.80;46.80
38436;DHT22;24220;48.168;14.024;2023-03-04T13:02:00;15.80;46.80
38436;DHT22;24220;48.168;14.024;2023-03-04T13:10:29;15.80;46.00
38436;DHT22;24220;48.168;14.024;2023-03-04T13:13:00;15.80;46.10
38436;DHT22;24220;48.168;14.024;2023-03-04T13:15:37;15.70;45.50
38436;DHT22;24220;48.168;14.024;2023-03-04T13:18:33;15.70;46.30
38436;DHT22;24220;48.168;14.024;2023-03-04T13:21:25;15.70;46.20
38436;DHT22;24220;48.168;14.024;2023-03-04T13:23:53;15.70;46.30
38436;DHT22;24220;48.168;14.024;2023-03-04T13:32:02;15.70;46.60
38436;DHT22;24220;48.168;14.024;2023-03-04T13:34:51;15.70;47.10
38436;DHT22;24220;48.168;14.024;2023-03-04T13:37:58;15.60;46.90
38436;DHT22;24220;48.168;14.024;2023-03-04T13:40:34;15.60;46.80
38436;DHT22;24220;48.168;14.024;2023-03-04T13:43:24;15.60;47.60
38436;DHT22;24220;48.168;14.024;2023-03-04T13:45:55;15.60;46.90
38436;DHT22;24220;48.168;14.024;2023-03-04T13:48:33;15.60;46.80
38436;DHT22;24220;48.168;14.024;2023-03-04T13:51:11;15.50;46.40
38436;DHT22;24220;48.168;14.024;2023-03-04T13:56:41;15.50;46.50
38436;DHT22;24220;48.168;14.024;2023-03-04T14:02:10;15.30;47.20
38436;DHT22;24220;48.168;14.024;2023-03-04T14:04:46;15.30;47.10
38436;DHT22;24220;48.168;14.024;2023-03-04T14:07:33;15.30;47.40
38436;DHT22;24220;48.168;14.024;2023-03-04T14:10:23;15.30;47.50
38436;DHT22;24220;48.168;14.024;2023-03-04T14:12:56;15.30;47.80
38436;DHT22;24220;48.168;14.024;2023-03-04T14:15:32;15.20;47.90
38436;DHT22;24220;48.168;14.024;2023-03-04T14:18:09;15.20;48.20
38436;DHT22;24220;48.168;14.024;2023-03-04T14:20:39;15.10;48.10
38436;DHT22;24220;48.168;14.024;2023-03-04T14:23:32;15.10;47.60
38436;DHT22;24220;48.168;14.024;2023-03-04T14:26:13;15.10;47.50
38436;DHT22;24220;48.168;14.024;2023-03-04T14:28:48;15.00;47.80
38436;DHT22;24220;48.168;14.024;2023-03-04T14:31:21;15.00;47.70
38436;DHT22;24220;48.168;14.024;2023-03-04T14:33:59;15.00;47.60
38436;DHT22;24220;48.168;14.024;2023-03-04T14:36:36;14.90;47.70
38436;DHT22;24220;48.168;14.024;2023-03-04T14:39:05;14.90;47.90
38436;DHT22;24220;48.168;14.024;2023-03-04T14:41:35;14.80;47.60
38436;DHT22;24220;48.168;14.024;2023-03-04T14:46:57;14.70;47.70
38436;DHT22;24220;48.168;14.024;2023-03-04T14:49:35;14.70;47.80
38436;DHT22;24220;48.168;14.024;2023-03-04T14:52:24;14.60;47.70
38436;DHT22;24220;48.168;14.024;2023-03-04T14:55:02;14.60;47.80
38436;DHT22;24220;48.168;14.024;2023-03-04T14:57:36;14.60;47.70
38436;DHT22;24220;48.168;14.024;2023-03-04T15:00:39;14.50;47.60
38436;DHT22;24220;48.168;14.024;2023-03-04T15:03:30;14.40;47.60
38436;DHT22;24220;48.168;14.024;2023-03-04T15:06:24;14.30;47.30
38436;DHT22;24220;48.168;14.024;2023-03-04T15:11:49;14.20;47.30
38436;DHT22;24220;48.168;14.024;2023-03-04T15:17:40;14.10;47.20
38436;DHT22;24220;48.168;14.024;2023-03-04T15:20:17;14.00;47.70
38436;DHT22;24220;48.168;14.024;2023-03-04T15:25:20;13.80;47.40
38436;DHT22;24220;48.168;14.024;2023-03-04T15:27:57;13.80;47.20
38436;DHT22;24220;48.168;14.024;2023-03-04T15:30:34;13.70;47.30
38436;DHT22;24220;48.168;14.024;2023-03-04T15:33:05;13.60;47.20
38436;DHT22;24220;48.168;14.024;2023-03-04T15:36:08;13.50;47.00
38436;DHT22;24220;48.168;14.024;2023-03-04T15:38:42;13.40;47.20
38436;DHT22;24220;48.168;14.024;2023-03-04T15:41:11;13.30;47.40
38436;DHT22;24220;48.168;14.024;2023-03-04T15:43:39;13.20;47.30
38436;DHT22;24220;48.168;14.024;2023-03-04T15:46:09;13.20;47.60
38436;DHT22;24220;48.168;14.024;2023-03-04T15:48:37;13.10;47.40
38436;DHT22;24220;48.168;14.024;2023-03-04T15:53:59;12.90;47.50
38436;DHT22;24220;48.168;14.024;2023-03-04T15:56:30;12.90;47.80
38436;DHT22;24220;48.168;14.024;2023-03-04T15:59:26;12.80;47.70
38436;DHT22;24220;48.168;14.024;2023-03-04T16:01:56;12.80;47.70
38436;DHT22;24220;48.168;14.024;2023-03-04T16:04:25;12.70;47.60
38436;DHT22;24220;48.168;14.024;2023-03-04T16:06:53;12.70;47.80
38436;DHT22;24220;48.168;14.024;2023-03-04T16:09:24;12.60;47.40
38436;DHT22;24220;48.168;14.024;2023-03-04T16:11:52;12.50;47.50
38436;DHT22;24220;48.168;14.024;2023-03-04T16:14:22;12.50;47.60
38436;DHT22;24220;48.168;14.024;2023-03-04T16:16:49;12.40;47.60
38436;DHT22;24220;48.168;14.024;2023-03-04T16:19:19;12.30;47.60
38436;DHT22;24220;48.168;14.024;2023-03-04T16:21:46;12.20;47.40
38436;DHT22;24220;48.168;14.024;2023-03-04T16:24:18;12.20;47.40
38436;DHT22;24220;48.168;14.024;2023-03-04T16:26:46;12.10;47.50
38436;DHT22;24220;48.168;14.024;2023-03-04T16:29:16;12.10;47.50
38436;DHT22;24220;48.168;14.024;2023-03-04T16:31:43;12.00;47.60
38436;DHT22;24220;48.168;14.024;2023-03-04T16:34:11;11.90;47.50
38436;DHT22;24220;48.168;14.024;2023-03-04T16:36:38;11.90;47.40
38436;DHT22;24220;48.168;14.024;2023-03-04T16:39:19;11.80;47.30
38436;DHT22;24220;48.168;14.024;2023-03-04T16:41:50;11.70;47.00
38436;DHT22;24220;48.168;14.024;2023-03-04T16:44:17;11.70;47.20
38436;DHT22;24220;48.168;14.024;2023-03-04T16:46:44;11.60;47.30
38436;DHT22;24220;48.168;14.024;2023-03-04T16:49:14;11.50;47.30
38436;DHT22;24220;48.168;14.024;2023-03-04T16:51:47;11.40;47.30
38436;DHT22;24220;48.168;14.024;2023-03-04T16:54:25;11.40;47.40
38436;DHT22;24220;48.168;14.024;2023-03-04T16:56:54;11.20;47.30
38436;DHT22;24220;48.168;14.024;2023-03-04T16:59:21;11.20;47.40
38436;DHT22;24220;48.168;14.024;2023-03-04T17:01:52;11.20;47.40
38436;DHT22;24220;48.168;14.024;2023-03-04T17:04:20;11.10;47.60
38436;DHT22;24220;48.168;14.024;2023-03-04T17:06:47;11.00;47.50
38436;DHT22;24220;48.168;14.024;2023-03-04T17:09:14;11.00;47.50
38436;DHT22;24220;48.168;14.024;2023-03-04T17:11:44;10.90;47.50
38436;DHT22;24220;48.168;14.024;2023-03-04T17:14:12;10.80;47.50
38436;DHT22;24220;48.168;14.024;2023-03-04T17:16:39;10.80;47.40
38436;DHT22;24220;48.168;14.024;2023-03-04T17:19:06;10.70;48.00
38436;DHT22;24220;48.168;14.024;2023-03-04T17:21:34;10.70;47.30
38436;DHT22;24220;48.168;14.024;2023-03-04T17:24:01;10.60;47.40
38436;DHT22;24220;48.168;14.024;2023-03-04T17:26:30;10.60;47.20
38436;DHT22;24220;48.168;14.024;2023-03-04T17:28:58;10.50;47.20
38436;DHT22;24220;48.168;14.024;2023-03-04T17:31:27;10.40;47.30
38436;DHT22;24220;48.168;14.024;2023-03-04T17:33:55;10.40;47.50
38436;DHT22;24220;48.168;14.024;2023-03-04T17:36:23;10.30;47.60
38436;DHT22;24220;48.168;14.024;2023-03-04T17:38:50;10.30;47.70
38436;DHT22;24220;48.168;14.024;2023-03-04T17:41:19;10.20;47.70
38436;DHT22;24220;48.168;14.024;2023-03-04T17:43:48;10.20;47.70
38436;DHT22;24220;48.168;14.024;2023-03-04T17:46:19;10.20;47.80